createdAt,value
2024-04-25T00:02:29.438Z,88.3
2024-04-25T00:18:11.810Z,88.8
2024-04-25T00:33:54.374Z,90.46
2024-04-25T00:49:36.576Z,92.04
2024-04-25T01:05:18.687Z,92.19
2024-04-25T01:21:01.492Z,91.51
2024-04-25T01:36:44.088Z,89.54
2024-04-25T01:52:26.457Z,89.02
2024-04-25T02:08:09.276Z,89.14
2024-04-25T02:23:52.194Z,89.45
2024-04-25T02:39:34.204Z,89.87
2024-04-25T02:55:16.403Z,89.82
2024-04-25T03:10:59.374Z,89
2024-04-25T03:26:42.380Z,89.01
2024-04-25T03:42:24.439Z,87.86
2024-04-25T03:58:07.265Z,88.58
2024-04-25T04:13:49.786Z,88.14
2024-04-25T04:29:32.122Z,86.84
2024-04-25T04:45:14.641Z,84.89
2024-04-25T05:00:57.149Z,82.34
2024-04-25T05:16:39.977Z,81.42
2024-04-25T05:32:22.076Z,75.15
2024-04-25T05:48:04.492Z,69.24
2024-04-25T06:03:46.498Z,72.83
2024-04-25T06:19:28.796Z,72.7
2024-04-25T06:35:11.492Z,72.82
2024-04-25T06:50:54.076Z,70.76
2024-04-25T07:06:36.170Z,72.14
2024-04-25T07:22:18.365Z,72.8
2024-04-25T07:38:01.240Z,70.86
2024-04-25T07:53:44.149Z,74.17
2024-04-25T08:09:27.054Z,75.23
2024-04-25T08:25:09.145Z,75.47
2024-04-25T08:40:51.573Z,71.15
2024-04-25T08:56:34.160Z,64.74
2024-04-25T09:12:16.690Z,65.09
2024-04-25T09:27:58.865Z,63.24
2024-04-25T09:43:41.305Z,64.55
2024-04-25T09:59:23.185Z,66.97
2024-04-25T10:15:05.177Z,67.93
2024-04-25T10:30:48.097Z,67.04
2024-04-25T10:46:30.843Z,60.25
2024-04-25T11:02:12.797Z,41.49
2024-04-25T11:17:55.336Z,51.78
2024-04-25T11:33:37.790Z,59.27
2024-04-25T11:49:19.692Z,57.62
2024-04-25T12:05:01.820Z,43.24
2024-04-25T12:20:43.600Z,34.71
2024-04-25T12:36:25.624Z,31.42
2024-04-25T12:52:07.939Z,32
2024-04-25T13:07:50.200Z,41.66
2024-04-25T13:23:33.051Z,40.2
2024-04-25T13:39:15.637Z,36.92
2024-04-25T13:54:57.551Z,35.29
2024-04-25T14:10:39.797Z,41.19
2024-04-25T14:26:21.753Z,45.05
2024-04-25T14:42:03.772Z,53.09
2024-04-25T14:57:46.180Z,49.78
2024-04-25T15:13:28.391Z,47.63
2024-04-25T15:29:11.073Z,45.45
2024-04-25T15:44:53.518Z,44.47
2024-04-25T16:00:35.570Z,49.39
2024-04-25T16:16:18.020Z,49.67
2024-04-25T16:32:00.153Z,51.03
2024-04-25T16:47:42.083Z,53.23
2024-04-25T17:03:24.706Z,57.32
2024-04-25T17:19:06.662Z,60.78
2024-04-25T17:34:49.056Z,66.33
2024-04-25T17:50:32.023Z,65.99
2024-04-25T18:06:13.968Z,66.64
2024-04-25T18:21:56.863Z,67.68
2024-04-25T18:37:39.282Z,68.57
2024-04-25T18:53:22.089Z,69.24
2024-04-25T18:54:09.435Z,68.68
2024-04-25T19:09:51.579Z,66.82
2024-04-25T19:25:34.395Z,64.11
2024-04-25T19:41:17.213Z,62.22
2024-04-25T19:56:59.099Z,62.66
2024-04-25T20:12:41.346Z,64.87
2024-04-25T20:28:23.777Z,66.82
2024-04-25T20:44:06.467Z,71.66
2024-04-25T20:59:48.881Z,75.51
2024-04-25T21:15:31.113Z,76.19
2024-04-25T21:31:13.120Z,78.59
2024-04-25T21:46:55.278Z,79.81
2024-04-25T22:02:37.890Z,80.53
2024-04-25T22:18:20.487Z,82.26
2024-04-25T22:34:03.041Z,84.09
2024-04-25T22:49:45.637Z,85.32
2024-04-25T23:05:28.234Z,86.23
2024-04-25T23:21:11.091Z,87.49
2024-04-25T23:36:53.435Z,87.6
2024-04-25T23:52:36.532Z,87.88
